Time;durP1;ratioP1;P1;durP2;ratioP2;P2;SDS_P1;SDS_P2;PMS_P1;PMS_P2;Temp;Humidity;BMP_temperature;BMP_pressure;BME280_temperature;BME280_humidity;BME280_pressure;Samples;Min_cycle;Max_cycle;Signal;HPM_P1;HPM_P2
2022/10/20 00:02:08;;;;;;;20.23;14.77;;;;;;;17.57;47.51;101636.72;5046728;28;20402;-61
2022/10/20 00:04:33;;;;;;;17.77;13.73;;;;;;;17.54;47.42;101636.25;5046881;28;20932;-61
2022/10/20 00:10:16;;;;;;;19.92;14.13;;;;;;;17.44;47.44;101641.94;5081768;27;20428;-60
2022/10/20 00:12:41;;;;;;;17.35;13.98;;;;;;;17.41;47.41;101636.94;5020334;28;20496;-61
2022/10/20 00:15:07;;;;;;;18.83;13.52;;;;;;;17.41;47.37;101638.81;5019622;28;20518;-60
2022/10/20 00:17:32;;;;;;;15.80;13.77;;;;;;;17.40;47.28;101643.34;5026983;28;20391;-61
2022/10/20 00:19:58;;;;;;;15.38;12.93;;;;;;;17.36;47.23;101636.72;5016354;28;20385;-61
2022/10/20 00:24:51;;;;;;;18.63;13.32;;;;;;;17.34;47.14;101653.00;5079420;27;20779;-60
2022/10/20 00:27:16;;;;;;;16.87;13.10;;;;;;;17.32;47.02;101643.47;5026526;28;20901;-60
2022/10/20 00:35:20;;;;;;;17.48;12.90;;;;;;;17.16;47.21;101658.78;5085951;27;20406;-60
2022/10/20 00:37:45;;;;;;;16.13;12.20;;;;;;;17.13;47.10;101652.97;5029255;28;20399;-60
2022/10/20 00:40:12;;;;;;;15.63;13.27;;;;;;;17.12;47.13;101648.63;5035944;28;20397;-60
2022/10/20 00:42:37;;;;;;;16.38;11.98;;;;;;;17.04;47.23;101651.44;5032783;28;20396;-60
2022/10/20 00:45:30;;;;;;;15.63;12.38;;;;;;;16.98;47.21;101653.88;5086761;27;20408;-61
2022/10/20 00:51:57;;;;;;;15.93;12.25;;;;;;;16.96;47.16;101653.22;5078991;27;20401;-60
2022/10/20 00:57:59;;;;;;;18.58;13.68;;;;;;;16.89;47.14;101659.50;5086034;27;20409;-61
2022/10/20 01:00:49;;;;;;;17.73;12.43;;;;;;;16.82;47.11;101660.25;5084543;27;20928;-60
2022/10/20 01:03:44;;;;;;;18.90;11.77;;;;;;;16.80;46.94;101656.09;5026712;28;20407;-60
2022/10/20 01:06:11;;;;;;;15.48;11.50;;;;;;;16.81;46.96;101660.44;5026667;28;20402;-60
2022/10/20 01:08:37;;;;;;;14.90;11.32;;;;;;;16.77;46.96;101662.66;5026671;28;20402;-60
2022/10/20 01:14:00;;;;;;;14.73;10.85;;;;;;;16.68;46.90;101658.41;5070091;27;20406;-60
2022/10/20 01:16:54;;;;;;;13.83;10.93;;;;;;;16.66;46.92;101663.13;5026168;28;20947;-61
2022/10/20 01:21:28;;;;;;;14.70;11.02;;;;;;;16.62;46.74;101665.34;5067236;27;20411;-61
2022/10/20 01:24:12;;;;;;;13.97;10.33;;;;;;;16.62;46.70;101662.69;5013153;28;20489;-60
2022/10/20 01:26:56;;;;;;;15.00;10.60;;;;;;;16.59;47.00;101663.03;5033894;28;20399;-60
2022/10/20 01:30:04;;;;;;;14.90;10.88;;;;;;;16.56;46.95;101663.41;5091369;27;20405;-61
2022/10/20 01:35:54;;;;;;;13.52;10.60;;;;;;;16.53;46.97;101670.97;5076088;27;20414;-60
2022/10/20 01:38:45;;;;;;;12.73;10.50;;;;;;;16.52;47.10;101674.69;5021418;28;20495;-61
2022/10/20 01:42:10;;;;;;;15.40;10.65;;;;;;;16.47;46.98;101666.38;5081366;27;20417;-61
2022/10/20 01:44:37;;;;;;;12.73;10.48;;;;;;;16.49;46.95;101675.88;5011765;28;20448;-60
2022/10/20 01:48:40;;;;;;;13.50;10.45;;;;;;;16.46;47.28;101680.75;5087991;27;20413;-60
2022/10/20 01:51:07;;;;;;;15.23;10.07;;;;;;;16.45;47.00;101679.94;5033833;28;20928;-60
2022/10/20 01:53:32;;;;;;;12.45;10.30;;;;;;;16.44;47.09;101679.13;5044611;28;20501;-61
2022/10/20 01:55:59;;;;;;;16.43;10.93;;;;;;;16.41;47.03;101684.00;5027165;28;20407;-60
2022/10/20 01:59:41;;;;;;;15.33;10.77;;;;;;;16.43;47.02;101693.50;5117680;27;843709;-63
2022/10/20 02:02:22;;;;;;;15.57;10.70;;;;;;;16.42;47.11;101688.34;5133936;27;20382;-60
2022/10/20 02:05:00;;;;;;;19.17;12.70;;;;;;;16.43;47.15;101703.38;5135438;27;20371;-60
2022/10/20 02:07:28;;;;;;;65.82;44.80;;;;;;;16.40;47.14;101701.06;5142308;27;20433;-61
2022/10/20 02:10:17;;;;;;;18.77;16.52;;;;;;;16.36;47.08;101699.78;5082070;27;20404;-60
2022/10/20 02:12:46;;;;;;;20.67;18.52;;;;;;;16.37;47.06;101696.94;5046830;28;20895;-62
2022/10/20 02:15:18;;;;;;;19.17;16.73;;;;;;;16.37;47.17;101704.13;5046882;28;20393;-60
2022/10/20 02:17:48;;;;;;;19.08;15.35;;;;;;;16.36;47.12;101697.09;5020589;28;20530;-61
2022/10/20 02:20:14;;;;;;;22.92;20.60;;;;;;;16.32;46.99;101696.66;5046746;28;20408;-60
2022/10/20 02:22:40;;;;;;;18.15;16.35;;;;;;;16.29;47.25;101702.34;5046196;28;20475;-60
2022/10/20 02:25:09;;;;;;;21.00;18.10;;;;;;;16.30;47.42;101705.88;5046759;28;20430;-60
2022/10/20 02:27:38;;;;;;;17.83;15.20;;;;;;;16.25;47.32;101703.75;5028930;28;20384;-60
2022/10/20 02:30:10;;;;;;;16.55;12.30;;;;;;;16.23;47.41;101698.56;5026998;28;20430;-60
2022/10/20 02:32:37;;;;;;;19.25;16.08;;;;;;;16.23;47.54;101701.25;5026468;28;20396;-62
2022/10/20 02:35:05;;;;;;;23.33;21.00;;;;;;;16.19;47.53;101697.28;5026478;28;20905;-60
2022/10/20 02:37:31;;;;;;;16.45;14.75;;;;;;;16.16;47.63;101704.84;5025197;28;20379;-60
2022/10/20 02:42:39;;;;;;;17.35;13.98;;;;;;;16.13;47.55;101703.34;5080911;27;20412;-60
2022/10/20 02:45:05;;;;;;;17.40;12.50;;;;;;;16.12;47.60;101709.72;5027105;28;20426;-60
2022/10/20 02:47:31;;;;;;;17.30;13.02;;;;;;;16.10;47.69;101703.75;5027019;28;20769;-60
2022/10/20 02:50:43;;;;;;;16.20;11.18;;;;;;;16.04;47.73;101704.44;5073900;27;20413;-60
2022/10/20 02:53:08;;;;;;;14.90;12.30;;;;;;;16.02;48.01;101712.66;5022863;28;20457;-60
2022/10/20 02:56:58;;;;;;;15.57;12.13;;;;;;;15.94;48.20;101703.91;5083088;27;20410;-61
2022/10/20 02:59:24;;;;;;;20.98;15.63;;;;;;;15.93;48.25;101712.91;5026985;28;20778;-60
2022/10/20 03:04:09;;;;;;;25.10;22.55;;;;;;;15.88;48.50;101726.81;5080177;27;20413;-61
2022/10/20 03:06:34;;;;;;;22.67;16.38;;;;;;;15.86;48.63;101719.00;5046660;28;20402;-60
2022/10/20 03:09:00;;;;;;;17.27;13.47;;;;;;;15.88;48.41;101732.16;5046838;28;20745;-60
2022/10/20 03:12:55;;;;;;;16.10;11.95;;;;;;;15.84;48.69;101730.88;5084775;27;20405;-61
2022/10/20 03:15:20;;;;;;;23.73;19.57;;;;;;;15.82;48.54;101730.22;5042124;28;20407;-61
2022/10/20 03:17:46;;;;;;;29.00;26.30;;;;;;;15.82;48.79;101730.22;5037393;28;20382;-60
2022/10/20 03:20:11;;;;;;;18.40;16.10;;;;;;;15.78;48.72;101728.94;5031368;28;20427;-60
2022/10/20 03:22:37;;;;;;;16.88;13.30;;;;;;;15.66;49.03;101726.66;5038790;28;20383;-62
2022/10/20 03:25:03;;;;;;;23.17;18.57;;;;;;;15.68;49.20;101729.13;5026997;28;20388;-60
2022/10/20 03:28:52;;;;;;;26.20;23.67;;;;;;;15.63;49.19;101721.66;5083416;27;20928;-60
2022/10/20 03:31:17;;;;;;;14.40;12.77;;;;;;;15.57;49.45;101719.69;5026737;28;20406;-60
2022/10/20 03:33:43;;;;;;;14.90;13.30;;;;;;;15.62;49.46;101730.66;5026943;28;20545;-61
2022/10/20 03:36:08;;;;;;;21.07;18.93;;;;;;;15.57;49.53;101727.69;5026614;28;20379;-60
2022/10/20 03:38:34;;;;;;;20.17;14.57;;;;;;;15.59;49.32;101738.22;5036363;28;20405;-60
2022/10/20 03:41:25;;;;;;;13.75;12.23;;;;;;;15.58;49.37;101732.03;5072547;27;20418;-63
2022/10/20 03:45:20;;;;;;;22.02;12.52;;;;;;;15.58;49.37;101728.53;5074680;27;20405;-60
2022/10/20 03:47:46;;;;;;;18.37;16.10;;;;;;;15.60;49.34;101740.72;5031885;28;20399;-60
2022/10/20 03:51:13;;;;;;;22.80;20.48;;;;;;;15.63;49.23;101745.72;5079285;27;20416;-60
2022/10/20 03:55:24;;;;;;;19.38;16.05;;;;;;;15.60;49.35;101754.06;5069935;27;20892;-60
2022/10/20 03:57:49;;;;;;;21.38;19.25;;;;;;;15.60;49.51;101750.56;5042633;28;20547;-60
2022/10/20 04:00:15;;;;;;;17.10;12.97;;;;;;;15.55;49.40;101739.59;5038626;28;20409;-61
2022/10/20 04:02:43;;;;;;;22.00;19.30;;;;;;;15.53;49.40;101744.28;5035235;28;20404;-59
2022/10/20 04:05:14;;;;;;;17.38;12.23;;;;;;;15.54;49.47;101736.09;5037281;28;20556;-62
2022/10/20 04:07:40;;;;;;;14.20;10.27;;;;;;;15.51;49.38;101740.97;5032430;28;20926;-62
2022/10/20 04:10:07;;;;;;;12.45;10.00;;;;;;;15.48;49.65;101742.97;5036319;28;20961;-65
2022/10/20 04:12:32;;;;;;;15.43;9.90;;;;;;;15.55;49.38;101740.41;5032336;28;20381;-61
2022/10/20 04:14:57;;;;;;;14.85;9.48;;;;;;;15.52;49.53;101740.78;5036609;28;20412;-61
2022/10/20 04:20:08;;;;;;;13.45;9.88;;;;;;;15.61;49.36;101749.56;5060838;27;21190;-61
2022/10/20 04:22:33;;;;;;;14.15;9.18;;;;;;;15.60;49.24;101738.03;5023686;28;20411;-63
2022/10/20 04:24:59;;;;;;;12.88;9.65;;;;;;;15.62;49.43;101743.22;5023987;28;20383;-60
2022/10/20 04:27:24;;;;;;;13.80;10.17;;;;;;;15.57;49.42;101735.72;5022291;28;20386;-63
2022/10/20 04:31:01;;;;;;;14.27;9.65;;;;;;;15.53;49.50;101746.94;5060679;27;20432;-60
2022/10/20 04:34:56;;;;;;;14.25;10.05;;;;;;;15.50;49.59;101740.09;5060558;27;20413;-60
2022/10/20 04:37:21;;;;;;;14.43;10.13;;;;;;;15.51;49.82;101744.44;5024245;28;20396;-63
2022/10/20 04:39:47;;;;;;;14.90;10.53;;;;;;;15.51;49.62;101744.44;5026642;28;20415;-60
2022/10/20 04:42:12;;;;;;;15.65;10.95;;;;;;;15.51;49.64;101744.44;5022409;28;20427;-67
2022/10/20 04:46:04;;;;;;;13.52;10.65;;;;;;;15.48;49.69;101753.66;5060504;27;20951;-64
2022/10/20 04:48:30;;;;;;;16.17;11.67;;;;;;;15.53;49.55;101765.66;5023797;28;20981;-68
2022/10/20 04:51:08;;;;;;;13.90;11.07;;;;;;;15.46;49.71;101762.84;5027037;28;20502;-60
2022/10/20 04:53:34;;;;;;;14.95;10.77;;;;;;;15.44;49.74;101764.88;5031901;28;20393;-62
2022/10/20 04:56:00;;;;;;;15.37;11.40;;;;;;;15.38;49.76;101761.06;5028953;28;20391;-58
2022/10/20 04:58:26;;;;;;;15.77;11.73;;;;;;;15.35;49.93;101763.25;5026936;28;20403;-59
2022/10/20 05:00:52;;;;;;;17.33;11.98;;;;;;;15.39;49.89;101768.06;5031379;28;20401;-66
2022/10/20 05:03:18;;;;;;;17.65;11.80;;;;;;;15.42;49.76;101770.38;5032589;28;20485;-61
2022/10/20 05:05:46;;;;;;;13.57;11.23;;;;;;;15.41;49.92;101766.06;5044355;28;20412;-60
2022/10/20 05:08:11;;;;;;;16.00;11.88;;;;;;;15.52;49.57;101778.19;5041617;28;20385;-65
2022/10/20 05:11:35;;;;;;;17.52;12.43;;;;;;;15.57;49.29;101765.09;5064955;27;20955;-62
2022/10/20 05:14:01;;;;;;;16.73;12.65;;;;;;;15.63;49.20;101772.44;5025581;28;20404;-62
2022/10/20 05:18:19;;;;;;;19.85;14.77;;;;;;;15.78;48.75;101774.38;5080311;27;20405;-61
2022/10/20 05:20:45;;;;;;;17.80;13.75;;;;;;;15.86;48.53;101782.31;5038716;28;20411;-60
2022/10/20 05:23:10;;;;;;;17.67;13.10;;;;;;;15.96;48.31;101785.59;5044406;28;20899;-60
2022/10/20 05:25:37;;;;;;;14.85;11.57;;;;;;;16.15;47.63;101786.09;5043229;28;20384;-60
2022/10/20 05:28:03;;;;;;;12.90;10.85;;;;;;;16.24;47.38;101795.72;5026751;28;20397;-59
2022/10/20 05:32:30;;;;;;;14.98;10.50;;;;;;;16.52;46.46;101793.28;5079718;27;20409;-60
2022/10/20 05:34:55;;;;;;;12.50;10.13;;;;;;;16.67;46.36;101800.50;5046242;28;20401;-61
2022/10/20 05:39:12;;;;;;;13.40;9.48;;;;;;;16.97;44.99;101799.50;5068644;27;20410;-60
2022/10/20 05:41:38;;;;;;;14.65;9.60;;;;;;;17.11;44.48;101799.69;5024880;28;20775;-60
2022/10/20 05:45:40;;;;;;;13.57;8.25;;;;;;;17.37;43.72;101815.25;5063762;27;20416;-60
2022/10/20 05:48:06;;;;;;;12.63;8.20;;;;;;;17.48;43.13;101812.09;5046195;28;20402;-60
2022/10/20 05:50:32;;;;;;;13.55;8.10;;;;;;;17.64;42.63;101820.94;5043367;28;20874;-60
2022/10/20 05:52:58;;;;;;;10.23;7.75;;;;;;;17.74;42.10;101818.78;5040403;28;20975;-58
2022/10/20 05:55:23;;;;;;;11.52;7.60;;;;;;;17.88;41.73;101831.34;5034850;28;20466;-60
2022/10/20 05:57:49;;;;;;;12.50;7.70;;;;;;;18.03;41.45;101836.63;5045679;28;20413;-60
2022/10/20 06:00:17;;;;;;;9.98;7.55;;;;;;;18.20;40.98;101836.34;5046467;28;20425;-60
2022/10/20 06:02:42;;;;;;;12.80;8.63;;;;;;;18.36;40.78;101854.06;5043654;28;20508;-60
2022/10/20 06:05:08;;;;;;;8.23;7.17;;;;;;;18.50;40.22;101856.63;5046064;28;20803;-60
2022/10/20 06:09:48;;;;;;;15.10;8.73;;;;;;;18.77;39.63;101864.06;5061237;27;20417;-60
2022/10/20 06:12:14;;;;;;;11.33;7.33;;;;;;;18.88;39.28;101850.94;5025978;28;20395;-61
2022/10/20 06:14:39;;;;;;;8.20;6.47;;;;;;;19.09;38.96;101858.09;5026238;28;20391;-60
2022/10/20 06:17:05;;;;;;;11.40;6.90;;;;;;;19.17;38.65;101859.78;5025723;28;20437;-61
2022/10/20 06:19:30;;;;;;;13.63;7.40;;;;;;;19.33;38.37;101874.75;5026068;28;20765;-60
2022/10/20 06:21:56;;;;;;;12.80;6.70;;;;;;;19.47;38.26;101876.47;5025826;28;20383;-60
2022/10/20 06:24:21;;;;;;;10.33;6.30;;;;;;;19.64;37.90;101870.75;5025910;28;20425;-59
2022/10/20 06:26:47;;;;;;;7.82;6.10;;;;;;;19.73;37.58;101876.78;5025815;28;20379;-61
2022/10/20 06:29:15;;;;;;;10.73;6.67;;;;;;;19.80;37.64;101875.78;5057508;28;21015;-61
2022/10/20 06:31:46;;;;;;;8.95;6.50;;;;;;;19.83;37.47;101886.16;5025599;28;20486;-60
2022/10/20 06:34:23;;;;;;;11.27;6.00;;;;;;;19.99;37.33;101881.44;5023387;28;20379;-62
2022/10/20 06:36:49;;;;;;;8.57;6.53;;;;;;;20.13;37.01;101883.13;5024692;28;20399;-61
2022/10/20 06:39:20;;;;;;;8.35;5.60;;;;;;;20.29;36.61;101876.47;5025832;28;20422;-60
2022/10/20 06:44:12;;;;;;;7.60;5.50;;;;;;;20.30;36.36;101891.63;5080510;27;20555;-60
2022/10/20 06:46:37;;;;;;;9.97;5.30;;;;;;;20.40;36.13;101893.88;5026174;28;20498;-62
2022/10/20 06:49:05;;;;;;;6.47;5.13;;;;;;;20.52;35.92;101891.41;5026498;28;20901;-64
2022/10/20 06:51:32;;;;;;;10.97;5.13;;;;;;;20.61;35.60;101887.50;5026433;28;20407;-61
2022/10/20 06:53:58;;;;;;;6.78;5.15;;;;;;;20.70;35.34;101891.63;5026425;28;20848;-61
2022/10/20 06:56:26;;;;;;;7.97;5.05;;;;;;;20.67;35.17;101894.78;5026556;28;20407;-62
2022/10/20 06:58:53;;;;;;;10.70;4.60;;;;;;;20.73;35.00;101895.81;5026062;28;20384;-60
2022/10/20 07:01:23;;;;;;;8.57;4.60;;;;;;;20.80;34.90;101894.75;5026094;28;20464;-60
2022/10/20 07:03:49;;;;;;;6.73;4.43;;;;;;;20.89;34.68;101891.84;5025164;28;20419;-60
2022/10/20 07:06:18;;;;;;;6.28;4.43;;;;;;;20.94;34.45;101894.72;5025624;28;20375;-61
2022/10/20 07:08:44;;;;;;;6.05;4.18;;;;;;;20.84;34.10;101894.34;5025992;28;20876;-60
2022/10/20 07:11:13;;;;;;;5.30;3.77;;;;;;;20.91;34.00;101898.66;5026385;28;20917;-60
2022/10/20 07:13:39;;;;;;;7.72;4.10;;;;;;;21.05;33.94;101904.03;5025866;28;20434;-61
2022/10/20 07:16:25;;;;;;;7.43;5.38;;;;;;;21.25;33.92;101893.19;5073618;27;20915;-60
2022/10/20 07:18:51;;;;;;;6.82;3.78;;;;;;;21.22;33.79;101902.53;5046753;28;20398;-61
2022/10/20 07:21:19;;;;;;;6.50;3.53;;;;;;;21.22;33.64;101904.41;5032457;28;20913;-60
2022/10/20 07:23:46;;;;;;;5.65;3.22;;;;;;;21.17;33.62;101895.06;5046802;28;20386;-62
2022/10/20 07:26:41;;;;;;;7.60;3.00;;;;;;;21.25;33.18;101899.41;5078135;27;20405;-61
2022/10/20 07:29:08;;;;;;;6.70;3.10;;;;;;;21.23;33.23;101898.81;5030387;28;20409;-61
2022/10/20 07:31:37;;;;;;;9.45;3.25;;;;;;;21.38;32.86;101893.16;5026463;28;20433;-60
2022/10/20 07:34:05;;;;;;;10.43;3.38;;;;;;;21.59;32.46;101897.47;5036861;28;20385;-61
2022/10/20 07:40:39;;;;;;;3.95;2.72;;;;;;;21.70;31.93;101890.56;5106416;27;20486;-61
2022/10/20 07:43:52;;;;;;;6.90;3.03;;;;;;;21.58;32.11;101891.22;5087934;27;20771;-60
2022/10/20 07:46:17;;;;;;;5.53;3.00;;;;;;;21.75;31.99;101902.38;5028319;28;20407;-60
2022/10/20 07:48:43;;;;;;;8.77;3.22;;;;;;;21.82;32.04;101891.50;5030463;28;20390;-60
2022/10/20 07:51:49;;;;;;;7.28;3.20;;;;;;;21.88;31.62;101896.06;5076695;27;20408;-60
2022/10/20 07:54:15;;;;;;;9.57;4.00;;;;;;;21.93;31.75;101890.84;5040961;28;20417;-60
2022/10/20 07:56:42;;;;;;;7.37;3.10;;;;;;;21.98;31.48;101895.56;5033689;28;20387;-62
2022/10/20 07:59:09;;;;;;;7.70;3.03;;;;;;;22.05;31.41;101898.25;5045122;28;20523;-62
2022/10/20 08:01:36;;;;;;;11.57;3.50;;;;;;;22.00;31.64;101903.47;5043584;28;20390;-59
2022/10/20 08:04:01;;;;;;;13.63;3.72;;;;;;;21.92;31.39;101897.28;5043024;28;20399;-60
2022/10/20 08:06:27;;;;;;;8.97;3.20;;;;;;;21.84;31.53;101900.25;5037784;28;20405;-60
2022/10/20 08:08:53;;;;;;;9.90;3.47;;;;;;;21.90;31.62;101893.16;5042890;28;20910;-61
2022/10/20 08:11:19;;;;;;;8.80;3.17;;;;;;;21.92;31.23;101894.56;5035933;28;20413;-62
2022/10/20 08:13:44;;;;;;;10.23;4.03;;;;;;;21.96;31.23;101895.78;5046359;28;20382;-61
2022/10/20 08:16:12;;;;;;;11.23;3.30;;;;;;;22.02;31.41;101907.63;5046072;28;20440;-59
2022/10/20 08:18:37;;;;;;;9.00;3.20;;;;;;;22.04;31.21;101900.13;5032560;28;20392;-61
2022/10/20 08:21:12;;;;;;;6.65;2.70;;;;;;;21.99;31.18;101908.03;5044941;28;20772;-61
2022/10/20 08:23:39;;;;;;;7.45;3.10;;;;;;;21.95;31.30;101898.72;5040668;28;20394;-62
2022/10/20 08:26:05;;;;;;;8.77;3.10;;;;;;;22.00;31.54;101906.16;5026211;28;20376;-61
2022/10/20 08:29:01;;;;;;;6.97;3.08;;;;;;;22.02;31.32;101898.66;5081180;27;20403;-60
2022/10/20 08:31:27;;;;;;;10.45;3.40;;;;;;;21.96;31.48;101898.50;5026967;28;20889;-60
2022/10/20 08:33:52;;;;;;;7.57;2.90;;;;;;;22.00;31.61;101906.16;5026619;28;20393;-60
2022/10/20 08:36:19;;;;;;;8.43;3.22;;;;;;;22.00;31.77;101906.97;5025444;28;20392;-60
2022/10/20 08:38:44;;;;;;;11.52;3.70;;;;;;;22.01;31.65;101902.44;5026721;28;20406;-61
2022/10/20 08:41:24;;;;;;;10.07;3.30;;;;;;;22.06;31.77;101900.72;5026265;28;20805;-60
2022/10/20 08:43:52;;;;;;;10.87;3.43;;;;;;;22.07;31.62;101902.38;5026711;28;20438;-60
2022/10/20 08:46:21;;;;;;;5.85;3.00;;;;;;;22.14;31.89;101900.44;5026201;28;20399;-61
2022/10/20 08:48:48;;;;;;;7.43;3.33;;;;;;;22.16;31.42;101900.25;5026664;28;20505;-60
2022/10/20 08:51:37;;;;;;;7.22;3.10;;;;;;;22.15;31.55;101894.00;5083202;27;20410;-60
2022/10/20 08:54:10;;;;;;;9.20;3.65;;;;;;;22.15;31.79;101891.31;5066480;28;20495;-60
2022/10/20 08:56:35;;;;;;;6.57;3.25;;;;;;;22.13;31.52;101896.13;5066261;28;20766;-60
2022/10/20 08:59:04;;;;;;;7.47;3.53;;;;;;;22.13;31.54;101903.41;5066468;28;20882;-60
2022/10/20 09:01:34;;;;;;;8.65;3.75;;;;;;;22.15;31.65;101904.81;5049995;28;20459;-59
2022/10/20 09:04:17;;;;;;;7.85;3.72;;;;;;;22.04;31.75;101904.69;5046567;28;20531;-62
2022/10/20 09:06:45;;;;;;;9.80;3.20;;;;;;;22.04;31.89;101899.28;5063892;28;20392;-61
2022/10/20 09:09:16;;;;;;;9.63;4.03;;;;;;;22.19;31.75;101899.00;5066456;28;20376;-61
2022/10/20 09:11:43;;;;;;;8.43;3.80;;;;;;;22.14;31.69;101899.63;5065944;28;20481;-61
2022/10/20 09:14:11;;;;;;;10.07;3.63;;;;;;;22.10;31.70;101896.53;5065791;28;20399;-62
2022/10/20 09:16:40;;;;;;;6.88;3.30;;;;;;;22.17;31.46;101901.09;5051730;28;20473;-61
2022/10/20 09:19:14;;;;;;;8.73;3.72;;;;;;;22.25;31.61;101909.72;5052969;28;20395;-62
2022/10/20 09:21:40;;;;;;;10.18;4.00;;;;;;;22.39;31.41;101913.19;5066259;28;20384;-61
2022/10/20 09:24:06;;;;;;;7.60;3.67;;;;;;;22.44;31.33;101905.25;5066309;28;20388;-61
2022/10/20 09:26:35;;;;;;;7.38;3.35;;;;;;;22.42;31.38;101899.25;5057799;28;20385;-61
2022/10/20 09:29:10;;;;;;;9.68;3.53;;;;;;;22.48;31.17;101901.06;5031767;28;20737;-61
2022/10/20 09:31:45;;;;;;;6.90;3.30;;;;;;;22.56;30.74;101897.25;5037639;28;20406;-61
2022/10/20 09:34:28;;;;;;;8.07;3.72;;;;;;;22.60;30.78;101886.81;5040007;28;20421;-62
2022/10/20 09:37:06;;;;;;;5.13;3.00;;;;;;;22.45;30.86;101896.09;5036011;28;20384;-60
2022/10/20 09:41:49;;;;;;;5.65;2.78;;;;;;;22.59;30.09;101890.59;5080642;27;20406;-62
2022/10/20 09:44:23;;;;;;;9.00;3.22;;;;;;;22.49;30.25;101891.06;5041495;28;20972;-60
2022/10/20 09:46:52;;;;;;;6.00;3.13;;;;;;;22.47;29.74;101901.28;5014788;28;20478;-61
2022/10/20 09:49:35;;;;;;;5.43;2.90;;;;;;;22.51;29.84;101907.91;5012778;28;20400;-60
2022/10/20 09:52:26;;;;;;;9.45;3.20;;;;;;;22.39;29.22;101897.00;5076022;27;20411;-60
2022/10/20 09:55:00;;;;;;;4.93;3.10;;;;;;;22.43;29.51;101900.91;5023312;28;20420;-60
2022/10/20 09:57:25;;;;;;;4.90;2.67;;;;;;;22.34;29.33;101894.13;5007208;28;20389;-61
2022/10/20 09:59:52;;;;;;;7.65;3.10;;;;;;;22.28;29.50;101895.81;5038726;28;20402;-60
2022/10/20 10:02:21;;;;;;;7.60;3.05;;;;;;;22.43;29.43;101897.38;5026908;28;20413;-60
2022/10/20 10:04:49;;;;;;;9.60;3.05;;;;;;;22.45;29.41;101897.97;5026635;28;20383;-68
2022/10/20 10:07:39;;;;;;;8.50;3.30;;;;;;;22.51;29.22;101886.31;5115867;27;849723;-59
2022/10/20 10:10:24;;;;;;;9.57;3.37;;;;;;;22.44;28.92;101893.63;5148350;27;20477;-64
2022/10/20 10:13:24;;;;;;;5.00;2.83;;;;;;;22.46;28.96;101891.53;5064981;27;20397;-63
2022/10/20 10:16:00;;;;;;;7.68;3.00;;;;;;;22.39;29.12;101888.06;5026900;28;20407;-60
2022/10/20 10:18:25;;;;;;;7.32;3.20;;;;;;;22.36;29.15;101888.50;5026576;28;20441;-61
2022/10/20 10:21:09;;;;;;;8.23;3.08;;;;;;;22.26;29.23;101887.13;5026688;28;20387;-60
2022/10/20 10:23:48;;;;;;;11.18;3.28;;;;;;;22.33;28.71;101882.50;5026353;28;20906;-60
2022/10/20 10:26:43;;;;;;;4.97;2.78;;;;;;;22.31;28.61;101884.59;5026357;28;20796;-61
2022/10/20 10:29:29;;;;;;;6.13;2.97;;;;;;;22.39;28.76;101883.47;5026395;28;20400;-60
2022/10/20 10:32:22;;;;;;;7.80;3.63;;;;;;;22.43;28.59;101875.75;5026451;28;20480;-60
2022/10/20 10:35:00;;;;;;;11.45;5.32;;;;;;;22.25;28.51;101869.22;5010973;28;20414;-60
2022/10/20 10:37:27;;;;;;;8.55;4.18;;;;;;;22.27;28.46;101872.56;5026066;28;20445;-60
2022/10/20 10:39:53;;;;;;;10.13;4.70;;;;;;;22.31;28.72;101864.84;5026524;28;20398;-60
2022/10/20 10:42:24;;;;;;;8.88;4.30;;;;;;;22.39;28.63;101856.47;5026136;28;20388;-60
2022/10/20 10:45:16;;;;;;;8.90;3.20;;;;;;;22.43;27.93;101864.94;5028445;28;20399;-60
2022/10/20 10:48:00;;;;;;;8.45;3.85;;;;;;;22.36;28.11;101853.38;5025225;28;20395;-61
2022/10/20 10:51:19;;;;;;;13.02;7.03;;;;;;;22.28;27.74;101847.19;5076989;27;20404;-60
2022/10/20 10:54:08;;;;;;;17.85;7.85;;;;;;;22.29;28.15;101848.03;5041482;28;20538;-63
2022/10/20 10:57:15;;;;;;;18.70;6.72;;;;;;;22.37;28.31;101842.34;5041766;28;20477;-60
2022/10/20 10:59:43;;;;;;;8.10;3.40;;;;;;;22.27;28.10;101831.22;4989784;28;20394;-60
2022/10/20 11:02:20;;;;;;;8.98;3.33;;;;;;;22.35;28.13;101833.66;5020439;28;20439;-60
2022/10/20 11:05:01;;;;;;;9.45;3.20;;;;;;;22.46;27.87;101851.00;5034843;28;20472;-60
2022/10/20 11:07:42;;;;;;;8.85;3.33;;;;;;;22.35;27.89;101827.44;5031542;28;20861;-59
2022/10/20 11:10:20;;;;;;;10.77;4.25;;;;;;;22.24;27.59;101829.75;5029245;28;20477;-61
2022/10/20 11:12:57;;;;;;;8.00;3.25;;;;;;;22.24;27.55;101827.06;5030794;28;20942;-58
2022/10/20 11:15:52;;;;;;;7.80;3.50;;;;;;;22.33;27.65;101824.94;5032740;28;20472;-60
2022/10/20 11:18:50;;;;;;;7.50;2.90;;;;;;;22.38;27.21;101826.97;5029116;28;20406;-60
2022/10/20 11:21:48;;;;;;;6.90;3.00;;;;;;;22.41;27.43;101821.13;5039149;28;20396;-61
2022/10/20 11:24:43;;;;;;;6.57;3.13;;;;;;;22.37;27.14;101814.53;5044685;28;20925;-59
2022/10/20 11:27:25;;;;;;;6.00;2.92;;;;;;;22.37;27.11;101811.81;5032053;28;20391;-63
2022/10/20 11:30:07;;;;;;;8.45;3.97;;;;;;;22.30;27.47;101804.59;5032436;28;20988;-60
2022/10/20 11:32:55;;;;;;;5.28;2.80;;;;;;;22.33;27.05;101814.13;5042211;28;20382;-60
2022/10/20 11:35:26;;;;;;;6.90;2.53;;;;;;;22.37;26.56;101811.81;5045290;28;20385;-60
2022/10/20 11:38:10;;;;;;;7.57;3.85;;;;;;;22.35;26.32;101814.75;5034677;28;20423;-63
2022/10/20 11:40:39;;;;;;;8.55;4.10;;;;;;;22.37;26.55;101809.13;5044624;28;20406;-61
2022/10/20 11:43:28;;;;;;;8.30;3.33;;;;;;;22.37;26.38;101799.13;5045778;28;20413;-61
2022/10/20 11:45:59;;;;;;;9.40;3.92;;;;;;;22.37;26.66;101803.72;5033084;28;20469;-60
2022/10/20 11:48:37;;;;;;;7.05;2.90;;;;;;;22.38;26.55;101808.88;5039230;28;20472;-61
2022/10/20 11:51:21;;;;;;;6.00;2.97;;;;;;;22.28;26.59;101795.88;5039828;28;20547;-60
2022/10/20 11:54:07;;;;;;;7.78;3.03;;;;;;;22.29;26.86;101802.94;5045266;28;20749;-61
2022/10/20 11:59:28;;;;;;;4.95;3.10;;;;;;;22.27;26.98;101796.09;5079384;27;20407;-60
2022/10/20 12:02:33;;;;;;;6.47;2.75;;;;;;;22.23;26.65;101798.38;5020834;28;20459;-60
2022/10/20 12:05:07;;;;;;;5.88;2.90;;;;;;;22.27;26.62;101796.09;5023808;28;20379;-60
2022/10/20 12:08:00;;;;;;;10.73;5.32;;;;;;;22.22;26.27;101788.66;5023796;28;20403;-60
2022/10/20 12:10:39;;;;;;;7.85;4.10;;;;;;;22.23;26.00;101797.56;5026864;28;20390;-60
2022/10/20 12:13:05;;;;;;;11.20;4.80;;;;;;;22.24;25.81;101786.53;5022451;28;20391;-60
2022/10/20 12:15:30;;;;;;;9.45;3.75;;;;;;;22.30;26.13;101782.97;5026108;28;20442;-60
2022/10/20 12:18:04;;;;;;;9.57;3.60;;;;;;;22.32;26.24;101772.78;5016985;28;20410;-64
2022/10/20 12:20:40;;;;;;;7.93;3.30;;;;;;;22.37;26.32;101777.53;5018833;28;20379;-60
2022/10/20 12:23:25;;;;;;;4.67;2.93;;;;;;;22.39;26.23;101778.13;5020838;28;20425;-61
2022/10/20 12:25:51;;;;;;;11.93;4.38;;;;;;;22.35;26.59;101773.41;5023108;28;20388;-60
2022/10/20 12:28:40;;;;;;;9.73;3.00;;;;;;;22.38;26.42;101781.03;5015347;28;20387;-60
2022/10/20 12:31:06;;;;;;;9.93;2.90;;;;;;;22.36;26.05;101767.75;5022031;28;20731;-61
2022/10/20 12:33:48;;;;;;;7.00;3.03;;;;;;;22.40;25.98;101770.84;5019275;28;20896;-61
2022/10/20 12:36:16;;;;;;;7.75;3.63;;;;;;;22.35;26.10;101768.00;5025965;28;20761;-60
2022/10/20 12:38:45;;;;;;;7.18;3.85;;;;;;;22.31;26.31;101779.25;5025884;28;20497;-63
2022/10/20 12:41:27;;;;;;;5.65;3.15;;;;;;;22.29;26.77;101770.53;5025899;28;20834;-60
2022/10/20 12:43:59;;;;;;;7.10;3.00;;;;;;;22.32;26.88;101775.47;5025530;28;20394;-60
2022/10/20 12:46:30;;;;;;;6.00;3.10;;;;;;;22.30;27.07;101763.25;5021533;28;20393;-60
2022/10/20 12:49:54;;;;;;;7.25;3.92;;;;;;;22.36;27.15;101775.84;5072691;27;20392;-60
2022/10/20 12:52:25;;;;;;;8.65;3.80;;;;;;;22.35;26.90;101771.50;5042510;28;20414;-59
2022/10/20 12:55:05;;;;;;;5.30;3.80;;;;;;;22.33;26.17;101784.44;5037429;28;20472;-61